Time;durP1;ratioP1;P1;durP2;ratioP2;P2;SDS_P1;SDS_P2;PMS_P1;PMS_P2;Temp;Humidity;BMP_temperature;BMP_pressure;BME280_temperature;BME280_humidity;BME280_pressure;Samples;Min_cycle;Max_cycle;Signal;HPM_P1;HPM_P2
2022/04/29 00:00:08;;;;;;;12.85;9.77;;;11.40;99.90;;;;;;5096513;28;20034;-65
2022/04/29 00:02:35;;;;;;;14.02;9.75;;;11.30;99.90;;;;;;5097344;28;20273;-65
2022/04/29 00:05:01;;;;;;;15.00;9.27;;;11.40;99.90;;;;;;5097263;28;20024;-66
2022/04/29 00:07:27;;;;;;;12.88;9.27;;;11.40;99.90;;;;;;5097283;28;20039;-66
2022/04/29 00:09:53;;;;;;;14.27;9.13;;;11.50;99.90;;;;;;5097193;28;20024;-65
2022/04/29 00:12:19;;;;;;;14.02;9.73;;;11.40;99.90;;;;;;5097259;28;20043;-66
2022/04/29 00:14:46;;;;;;;14.63;9.63;;;11.50;99.90;;;;;;5097143;28;20096;-64
2022/04/29 00:17:12;;;;;;;15.45;9.80;;;11.40;99.90;;;;;;5096371;28;20029;-65
2022/04/29 00:19:40;;;;;;;15.50;9.70;;;11.40;99.90;;;;;;5079637;28;20426;-64
2022/04/29 00:22:06;;;;;;;15.75;9.57;;;11.50;99.90;;;;;;5096723;28;20412;-65
2022/04/29 00:24:32;;;;;;;14.10;9.45;;;11.40;99.90;;;;;;5097086;28;20066;-65
2022/04/29 00:26:58;;;;;;;15.57;9.48;;;11.30;99.90;;;;;;5097018;28;20060;-65
2022/04/29 00:29:24;;;;;;;12.38;9.07;;;11.30;99.90;;;;;;5079467;28;20105;-65
2022/04/29 00:31:50;;;;;;;11.73;9.18;;;11.40;99.90;;;;;;5079393;28;20032;-64
2022/04/29 00:34:17;;;;;;;15.75;9.55;;;11.40;99.90;;;;;;5097126;28;20024;-66
2022/04/29 00:36:44;;;;;;;11.70;9.10;;;11.40;99.90;;;;;;5097327;28;20032;-66
2022/04/29 00:39:10;;;;;;;16.83;9.73;;;11.40;99.90;;;;;;5097136;28;20076;-64
2022/04/29 00:41:36;;;;;;;17.67;9.77;;;11.40;99.90;;;;;;5096896;28;20035;-64
2022/04/29 00:44:07;;;;;;;14.32;10.05;;;11.20;99.90;;;;;;5096819;28;20028;-65
2022/04/29 00:46:36;;;;;;;15.82;9.70;;;11.30;99.90;;;;;;5096752;28;20048;-65
2022/04/29 00:49:03;;;;;;;15.85;9.48;;;11.30;99.90;;;;;;5096781;28;20177;-65
2022/04/29 00:51:28;;;;;;;11.20;8.95;;;11.20;99.90;;;;;;5096948;28;20120;-66
2022/04/29 00:53:56;;;;;;;15.02;10.13;;;11.20;99.90;;;;;;5096773;28;20036;-65
2022/04/29 00:56:23;;;;;;;13.23;9.15;;;11.10;99.90;;;;;;5096828;28;20021;-65
2022/04/29 00:59:01;;;;;;;17.00;9.38;;;11.20;99.90;;;;;;5096031;28;20059;-66
2022/04/29 01:01:30;;;;;;;15.40;9.63;;;11.20;99.90;;;;;;5096018;28;20294;-63
2022/04/29 01:03:58;;;;;;;15.35;9.68;;;11.20;99.90;;;;;;5096936;28;20125;-63
2022/04/29 01:06:25;;;;;;;14.77;9.30;;;11.20;99.90;;;;;;5100536;28;20043;-63
2022/04/29 01:08:52;;;;;;;13.77;9.02;;;11.20;99.90;;;;;;5100575;28;20028;-65
2022/04/29 01:11:22;;;;;;;11.75;9.68;;;11.20;99.90;;;;;;5100493;28;20028;-65
2022/04/29 01:13:49;;;;;;;15.32;10.10;;;11.20;99.90;;;;;;5101008;28;20071;-63
2022/04/29 01:16:17;;;;;;;15.50;9.95;;;11.00;99.90;;;;;;5099740;28;20032;-65
2022/04/29 01:18:43;;;;;;;12.70;9.43;;;11.00;99.90;;;;;;5099526;28;20034;-64
2022/04/29 01:21:09;;;;;;;14.32;9.15;;;11.10;99.90;;;;;;5099702;28;20114;-66
2022/04/29 01:23:35;;;;;;;14.57;9.35;;;11.10;99.90;;;;;;5100477;28;20379;-65
2022/04/29 01:26:02;;;;;;;12.90;9.20;;;11.10;99.90;;;;;;5100140;28;20036;-65
2022/04/29 01:28:30;;;;;;;14.57;8.95;;;11.10;99.90;;;;;;5099395;28;20056;-64
2022/04/29 01:31:01;;;;;;;15.80;9.15;;;11.10;99.90;;;;;;5082652;28;20040;-65
2022/04/29 01:33:32;;;;;;;13.25;8.40;;;11.20;99.90;;;;;;5100004;28;20024;-64
2022/04/29 01:35:58;;;;;;;11.57;9.00;;;11.10;99.90;;;;;;5099168;28;20427;-65
2022/04/29 01:38:23;;;;;;;12.30;8.38;;;11.10;99.90;;;;;;5099102;28;20051;-65
2022/04/29 01:40:51;;;;;;;13.85;8.73;;;11.10;99.90;;;;;;5099945;28;20043;-64
2022/04/29 01:43:20;;;;;;;15.57;8.20;;;11.10;99.90;;;;;;5083155;28;20047;-65
2022/04/29 01:45:49;;;;;;;12.52;8.38;;;11.10;99.90;;;;;;5082569;28;20131;-65
2022/04/29 01:48:38;;;;;;;14.02;8.75;;;11.10;99.90;;;;;;5099079;28;20062;-65
2022/04/29 01:51:24;;;;;;;16.13;8.82;;;11.10;99.90;;;;;;5099301;28;20047;-64
2022/04/29 01:53:53;;;;;;;13.75;8.48;;;11.10;99.90;;;;;;5099775;28;20354;-65
2022/04/29 01:56:32;;;;;;;13.52;8.18;;;11.10;99.90;;;;;;5082431;28;20044;-65
2022/04/29 01:59:00;;;;;;;11.70;8.45;;;11.00;99.90;;;;;;5098839;28;20349;-65
2022/04/29 02:01:27;;;;;;;18.08;8.68;;;10.90;99.90;;;;;;5098808;28;20020;-65
2022/04/29 02:03:54;;;;;;;13.75;8.40;;;11.00;99.90;;;;;;5099609;28;20047;-64
2022/04/29 02:06:22;;;;;;;12.43;8.52;;;10.90;99.90;;;;;;5098791;28;20036;-65
2022/04/29 02:08:48;;;;;;;11.98;8.20;;;10.90;99.90;;;;;;5099293;28;20081;-66
2022/04/29 02:11:17;;;;;;;14.07;8.93;;;10.90;99.90;;;;;;5098738;28;20036;-65
2022/04/29 02:13:46;;;;;;;15.48;8.55;;;11.00;99.90;;;;;;5098928;28;20071;-67
2022/04/29 02:16:26;;;;;;;11.77;8.15;;;10.90;99.90;;;;;;5097585;28;20024;-66
2022/04/29 02:18:52;;;;;;;14.90;8.35;;;10.90;99.90;;;;;;5098796;28;20280;-65
2022/04/29 02:21:18;;;;;;;14.30;7.95;;;10.90;99.90;;;;;;5098396;28;20400;-65
2022/04/29 02:23:45;;;;;;;13.20;8.88;;;10.90;99.90;;;;;;5081550;28;20055;-65
2022/04/29 02:26:12;;;;;;;13.88;8.25;;;10.80;99.90;;;;;;5098260;28;20312;-66
2022/04/29 02:28:38;;;;;;;11.45;8.52;;;10.80;99.90;;;;;;5098624;28;20321;-65
2022/04/29 02:31:04;;;;;;;14.48;8.52;;;10.70;99.90;;;;;;5081345;28;20112;-65
2022/04/29 02:33:31;;;;;;;14.27;8.40;;;10.70;99.90;;;;;;5098137;28;20036;-65
2022/04/29 02:35:57;;;;;;;12.45;8.27;;;10.70;99.90;;;;;;5098034;28;20035;-64
2022/04/29 02:38:23;;;;;;;10.15;7.60;;;10.70;99.90;;;;;;5098225;28;20025;-64
2022/04/29 02:40:51;;;;;;;12.40;8.20;;;10.60;99.90;;;;;;5081098;28;20035;-65
2022/04/29 02:43:18;;;;;;;14.23;8.30;;;10.70;99.90;;;;;;5099063;28;20066;-65
2022/04/29 02:45:46;;;;;;;15.07;8.50;;;10.70;99.90;;;;;;5098037;28;20080;-66
2022/04/29 02:48:15;;;;;;;13.90;8.35;;;10.70;99.90;;;;;;5097898;28;20028;-65
2022/04/29 02:50:41;;;;;;;9.55;8.00;;;10.70;99.90;;;;;;5098661;28;20101;-64
2022/04/29 02:53:07;;;;;;;13.23;8.10;;;10.60;99.90;;;;;;5080834;28;20049;-65
2022/04/29 02:55:33;;;;;;;9.80;8.27;;;10.60;99.90;;;;;;5097731;28;20078;-66
2022/04/29 02:58:07;;;;;;;12.40;8.18;;;10.50;99.90;;;;;;5082089;28;20351;-65
2022/04/29 03:00:34;;;;;;;14.50;8.10;;;10.50;99.90;;;;;;5097730;28;20078;-65
2022/04/29 03:03:00;;;;;;;12.45;8.50;;;10.60;99.90;;;;;;5097729;28;20048;-65
2022/04/29 03:05:26;;;;;;;12.10;8.73;;;10.60;99.90;;;;;;5097862;28;20060;-66
2022/04/29 03:07:52;;;;;;;12.95;7.97;;;10.50;99.90;;;;;;5080793;28;20311;-67
2022/04/29 03:10:18;;;;;;;12.30;8.27;;;10.40;99.90;;;;;;5097425;28;20311;-65
2022/04/29 03:12:44;;;;;;;16.25;8.18;;;10.40;99.90;;;;;;5080504;28;20036;-66
2022/04/29 03:15:33;;;;;;;14.65;8.48;;;10.40;99.90;;;;;;5097375;28;20048;-66
2022/04/29 03:20:46;;;;;;;13.40;8.27;;;10.40;99.90;;;;;;5083102;28;20033;-66
2022/04/29 03:23:13;;;;;;;12.70;8.35;;;10.30;99.90;;;;;;5080353;28;20039;-66
2022/04/29 03:25:46;;;;;;;17.25;8.77;;;10.40;99.90;;;;;;5097431;28;20095;-66
2022/04/29 03:28:12;;;;;;;14.75;8.90;;;10.30;99.90;;;;;;5097648;28;20028;-66
2022/04/29 03:30:38;;;;;;;12.82;8.40;;;10.20;99.90;;;;;;5097129;28;20115;-67
2022/04/29 03:33:07;;;;;;;13.15;8.65;;;10.20;99.90;;;;;;5097100;28;20093;-66
2022/04/29 03:35:41;;;;;;;16.75;8.38;;;10.20;99.90;;;;;;5097256;28;20327;-65
2022/04/29 03:38:11;;;;;;;14.63;8.23;;;10.20;99.90;;;;;;5064925;28;20042;-67
2022/04/29 03:40:37;;;;;;;13.50;8.50;;;10.20;99.90;;;;;;5097081;28;20095;-66
2022/04/29 03:43:03;;;;;;;15.40;8.77;;;10.10;99.90;;;;;;5096895;28;20115;-65
2022/04/29 03:45:30;;;;;;;13.05;8.20;;;10.10;99.90;;;;;;5096727;28;20073;-66
2022/04/29 03:47:58;;;;;;;13.25;8.70;;;10.10;99.90;;;;;;5080331;28;20032;-66
2022/04/29 03:50:35;;;;;;;12.85;8.40;;;10.10;99.90;;;;;;5096750;28;20032;-66
2022/04/29 03:53:12;;;;;;;15.82;8.93;;;10.10;99.90;;;;;;5097421;28;20034;-66
2022/04/29 03:55:41;;;;;;;12.02;8.90;;;10.10;99.90;;;;;;5096732;28;20032;-65
2022/04/29 03:58:06;;;;;;;12.35;8.50;;;10.10;99.90;;;;;;5080008;28;20035;-66
2022/04/29 04:00:46;;;;;;;15.80;8.90;;;10.00;99.90;;;;;;5081793;28;20043;-66
2022/04/29 04:03:14;;;;;;;16.70;8.82;;;10.00;99.90;;;;;;5096673;28;20059;-66
2022/04/29 04:06:49;;;;;;;12.00;8.88;;;9.90;99.90;;;;;;5079753;28;20541;-66
2022/04/29 04:08:26;;;;;;;11.70;8.43;;;9.90;99.90;;;;;;5097311;28;20056;-66
2022/04/29 04:10:52;;;;;;;12.93;8.35;;;9.90;99.90;;;;;;5079810;28;20116;-66
2022/04/29 04:13:18;;;;;;;13.10;9.38;;;9.90;99.90;;;;;;5097768;28;20032;-66
2022/04/29 04:16:16;;;;;;;15.38;8.95;;;9.80;99.90;;;;;;5074302;28;20040;-66
2022/04/29 04:18:46;;;;;;;12.63;8.50;;;9.90;99.90;;;;;;5079756;28;20063;-66
2022/04/29 04:21:12;;;;;;;14.00;9.05;;;9.80;99.90;;;;;;5096421;28;20030;-66
2022/04/29 04:23:38;;;;;;;10.00;8.70;;;9.80;99.90;;;;;;5096916;28;20103;-66
2022/04/29 04:26:06;;;;;;;17.08;9.00;;;9.70;99.90;;;;;;5079723;28;20355;-66
2022/04/29 04:28:31;;;;;;;19.65;10.20;;;9.80;99.90;;;;;;5097609;28;20056;-66
2022/04/29 04:31:00;;;;;;;13.45;8.60;;;9.70;99.90;;;;;;5096191;28;20394;-66
2022/04/29 04:33:55;;;;;;;14.77;9.07;;;9.70;99.90;;;;;;5090493;28;20040;-66
2022/04/29 04:36:21;;;;;;;14.23;9.02;;;9.60;99.90;;;;;;5096172;28;20372;-66
2022/04/29 04:38:47;;;;;;;13.27;9.32;;;9.70;99.90;;;;;;5096432;28;20119;-66
2022/04/29 04:41:16;;;;;;;17.58;10.02;;;9.70;99.90;;;;;;5100237;28;20449;-66
2022/04/29 04:43:43;;;;;;;13.93;9.07;;;9.60;99.90;;;;;;5100264;28;20074;-66
2022/04/29 04:46:12;;;;;;;13.40;9.18;;;9.70;99.90;;;;;;5100004;28;20070;-66
2022/04/29 04:48:42;;;;;;;16.13;8.70;;;9.70;99.90;;;;;;5101321;28;20221;-66
2022/04/29 04:51:26;;;;;;;13.23;9.13;;;9.60;99.90;;;;;;5101164;28;20054;-66
2022/04/29 04:54:00;;;;;;;19.05;9.60;;;9.70;99.90;;;;;;5084064;28;20296;-66
2022/04/29 04:56:27;;;;;;;17.13;9.48;;;9.60;99.90;;;;;;5083277;28;20028;-66
2022/04/29 04:58:54;;;;;;;17.13;9.18;;;9.60;99.90;;;;;;5099979;28;20036;-66
2022/04/29 05:01:21;;;;;;;14.77;9.65;;;9.60;99.90;;;;;;5099558;28;20044;-66
2022/04/29 05:04:05;;;;;;;19.92;9.73;;;9.50;99.90;;;;;;5085938;28;20093;-67
2022/04/29 05:06:51;;;;;;;15.02;9.20;;;9.60;99.90;;;;;;5100403;28;20437;-65
2022/04/29 05:09:17;;;;;;;13.63;8.70;;;9.60;99.90;;;;;;5099803;28;20347;-66
2022/04/29 05:11:43;;;;;;;16.75;9.82;;;9.60;99.90;;;;;;5082666;28;20064;-66
2022/04/29 05:14:19;;;;;;;13.63;9.48;;;9.60;99.90;;;;;;5085084;28;20386;-66
2022/04/29 05:16:46;;;;;;;17.70;9.70;;;9.60;99.90;;;;;;5099647;28;20035;-66
2022/04/29 05:19:34;;;;;;;14.20;9.20;;;9.70;99.90;;;;;;5100278;28;20448;-66
2022/04/29 05:22:01;;;;;;;17.38;9.75;;;9.70;99.90;;;;;;5082642;28;20036;-66
2022/04/29 05:24:27;;;;;;;16.30;9.32;;;9.70;99.90;;;;;;5082575;28;20036;-65
2022/04/29 05:27:32;;;;;;;15.45;8.85;;;9.70;99.90;;;;;;5067008;28;20484;-65
2022/04/29 05:30:17;;;;;;;14.90;9.43;;;9.70;99.90;;;;;;5078418;28;20386;-65
2022/04/29 05:33:16;;;;;;;13.30;8.85;;;9.70;99.90;;;;;;5048740;28;20122;-65
2022/04/29 05:36:00;;;;;;;13.55;9.13;;;9.90;99.90;;;;;;5100142;28;20140;-68
2022/04/29 05:44:29;;;;;;;17.05;9.23;;;10.20;99.90;;;;;;5099691;28;20334;-66
2022/04/29 05:46:56;;;;;;;15.15;9.05;;;10.20;99.90;;;;;;5098943;28;20060;-65
2022/04/29 05:49:24;;;;;;;17.20;9.45;;;10.20;99.90;;;;;;5098983;28;20344;-66
2022/04/29 05:51:51;;;;;;;14.32;8.80;;;10.30;99.90;;;;;;5098972;28;20047;-66
2022/04/29 05:54:19;;;;;;;13.50;9.45;;;10.40;99.90;;;;;;5082539;28;20451;-65
2022/04/29 05:56:45;;;;;;;16.88;9.18;;;10.60;99.90;;;;;;5098751;28;20115;-65
2022/04/29 05:59:13;;;;;;;14.95;9.43;;;10.40;99.90;;;;;;5082401;28;20371;-65
2022/04/29 06:01:57;;;;;;;14.35;9.02;;;10.30;99.90;;;;;;5070267;28;20024;-65
2022/04/29 06:04:32;;;;;;;12.82;8.68;;;10.40;99.90;;;;;;5099098;28;20038;-66
2022/04/29 06:06:58;;;;;;;19.17;9.38;;;10.60;99.90;;;;;;5099081;28;20024;-67
2022/04/29 06:09:25;;;;;;;16.90;9.57;;;10.70;99.90;;;;;;5098733;28;20028;-65
2022/04/29 06:11:52;;;;;;;12.82;8.65;;;10.80;99.90;;;;;;5098992;28;20430;-65
2022/04/29 06:14:27;;;;;;;17.92;9.20;;;10.90;99.90;;;;;;5098839;28;20370;-65
2022/04/29 06:17:12;;;;;;;12.35;9.02;;;10.90;99.90;;;;;;5099809;28;20391;-65
2022/04/29 06:19:57;;;;;;;14.45;9.27;;;11.10;99.90;;;;;;5099138;28;20051;-66
2022/04/29 06:22:44;;;;;;;10.73;7.15;;;11.30;99.90;;;;;;5099455;28;20055;-61
2022/04/29 06:25:09;;;;;;;16.05;8.98;;;11.80;99.90;;;;;;5098520;28;20028;-65
2022/04/29 06:27:36;;;;;;;14.02;8.95;;;11.90;99.90;;;;;;5098274;28;20032;-65
2022/04/29 06:30:02;;;;;;;16.70;9.40;;;11.90;99.90;;;;;;5099854;28;20279;-65
2022/04/29 06:32:44;;;;;;;15.45;8.70;;;12.10;99.90;;;;;;5098385;28;20119;-65
2022/04/29 06:35:21;;;;;;;13.45;8.70;;;12.10;99.90;;;;;;5099190;28;20097;-65
2022/04/29 06:37:51;;;;;;;12.90;9.30;;;12.10;99.90;;;;;;5098120;28;20035;-65
2022/04/29 06:40:37;;;;;;;12.98;8.75;;;12.00;99.90;;;;;;5098904;28;20331;-64
2022/04/29 06:43:03;;;;;;;10.93;8.57;;;12.10;99.90;;;;;;5098193;28;20067;-64
2022/04/29 06:45:49;;;;;;;13.05;8.77;;;12.20;99.90;;;;;;5087483;28;20051;-63
2022/04/29 06:48:34;;;;;;;15.20;8.88;;;12.40;99.90;;;;;;5098918;28;20144;-64
2022/04/29 06:51:23;;;;;;;12.05;8.85;;;12.60;99.90;;;;;;5079237;28;20040;-64
2022/04/29 06:53:56;;;;;;;11.43;8.68;;;12.70;99.90;;;;;;5097903;28;20066;-65
2022/04/29 06:56:33;;;;;;;18.60;9.77;;;12.50;99.90;;;;;;5082652;28;20122;-64
2022/04/29 06:58:59;;;;;;;15.50;9.00;;;12.70;99.90;;;;;;5097917;28;20110;-64
2022/04/29 07:01:28;;;;;;;13.13;9.27;;;12.60;99.90;;;;;;5097727;28;20337;-63
2022/04/29 07:03:54;;;;;;;14.55;9.05;;;12.60;99.90;;;;;;5097387;28;20119;-64
2022/04/29 07:06:21;;;;;;;13.73;8.85;;;12.60;99.90;;;;;;5097653;28;20036;-64
2022/04/29 07:08:47;;;;;;;17.85;9.68;;;12.50;99.90;;;;;;5097849;28;20039;-64
2022/04/29 07:11:31;;;;;;;16.48;9.48;;;12.70;99.90;;;;;;5098771;28;20464;-64
2022/04/29 07:14:02;;;;;;;17.38;9.65;;;12.80;99.90;;;;;;5081634;28;20364;-64
2022/04/29 07:16:36;;;;;;;14.57;10.10;;;12.40;99.90;;;;;;5097602;28;20277;-65
2022/04/29 07:19:36;;;;;;;19.75;9.38;;;12.50;99.90;;;;;;5091169;28;20048;-64
2022/04/29 07:22:06;;;;;;;13.60;9.23;;;12.50;99.90;;;;;;5097218;28;20341;-65
2022/04/29 07:24:36;;;;;;;12.73;9.20;;;12.70;99.90;;;;;;5081161;28;20039;-65
2022/04/29 07:27:03;;;;;;;14.02;9.88;;;12.80;99.90;;;;;;5097145;28;20051;-65
2022/04/29 07:29:30;;;;;;;11.40;8.80;;;12.90;99.90;;;;;;5097064;28;20024;-65
2022/04/29 07:32:03;;;;;;;14.68;9.43;;;13.20;99.90;;;;;;5096864;28;20032;-64
2022/04/29 07:43:25;;;;;;;16.70;10.02;;;13.60;99.90;;;;;;5097510;28;20066;-64
2022/04/29 07:45:52;;;;;;;14.27;9.50;;;13.60;99.90;;;;;;5096753;28;20380;-64
2022/04/29 07:48:30;;;;;;;14.30;9.80;;;13.70;99.90;;;;;;5096951;28;20062;-64
2022/04/29 07:50:59;;;;;;;11.70;9.30;;;13.70;99.90;;;;;;5097239;28;20283;-64
2022/04/29 07:53:25;;;;;;;16.23;10.20;;;13.70;99.90;;;;;;5096383;28;20058;-65
2022/04/29 07:55:52;;;;;;;18.60;10.38;;;13.70;99.90;;;;;;5097310;28;20383;-64
2022/04/29 07:58:18;;;;;;;14.35;9.02;;;13.70;99.90;;;;;;5096603;28;20300;-64
2022/04/29 08:00:44;;;;;;;13.60;9.68;;;13.60;99.90;;;;;;5096749;28;20036;-64
2022/04/29 08:03:10;;;;;;;18.35;9.88;;;13.70;99.90;;;;;;5096574;28;20459;-64
2022/04/29 08:06:09;;;;;;;13.25;9.27;;;13.70;99.90;;;;;;5087596;28;20036;-63
2022/04/29 08:08:37;;;;;;;15.57;10.20;;;13.50;99.90;;;;;;5096571;28;20044;-64
2022/04/29 08:11:05;;;;;;;18.73;10.00;;;13.60;99.90;;;;;;5079727;28;20096;-64
2022/04/29 08:13:38;;;;;;;17.13;9.65;;;13.60;99.90;;;;;;5095639;28;20060;-64
2022/04/29 08:16:22;;;;;;;20.38;9.95;;;13.60;99.90;;;;;;5097520;28;20131;-63
2022/04/29 08:19:09;;;;;;;14.45;10.30;;;13.50;99.90;;;;;;5096719;28;20105;-64
2022/04/29 08:21:53;;;;;;;20.10;10.68;;;13.20;99.90;;;;;;5082378;28;20092;-64
2022/04/29 08:24:20;;;;;;;15.80;10.45;;;13.30;99.90;;;;;;5079803;28;20092;-64
2022/04/29 08:26:46;;;;;;;19.05;10.40;;;13.50;99.90;;;;;;5096246;28;20319;-64
2022/04/29 08:29:12;;;;;;;20.52;10.38;;;13.50;99.90;;;;;;5096160;28;20173;-64
2022/04/29 08:31:39;;;;;;;15.10;10.63;;;13.60;99.90;;;;;;5079583;28;20032;-64
2022/04/29 08:34:05;;;;;;;16.88;10.55;;;13.60;99.90;;;;;;5096085;28;20033;-64
2022/04/29 08:36:31;;;;;;;17.42;11.45;;;13.70;99.90;;;;;;5096157;28;20385;-64
2022/04/29 08:38:57;;;;;;;20.27;10.93;;;13.80;99.90;;;;;;5096087;28;20038;-64
2022/04/29 08:41:24;;;;;;;17.45;10.45;;;13.80;99.90;;;;;;5096134;28;20054;-64
2022/04/29 08:43:54;;;;;;;18.00;11.80;;;13.80;99.90;;;;;;5079624;28;20033;-64
2022/04/29 08:46:44;;;;;;;14.73;10.55;;;13.50;99.90;;;;;;5095909;28;20058;-63
2022/04/29 08:49:31;;;;;;;16.13;10.45;;;13.60;99.90;;;;;;5097832;28;20291;-64
2022/04/29 08:51:57;;;;;;;17.75;11.10;;;13.60;99.90;;;;;;5096685;28;20392;-64
2022/04/29 08:59:59;;;;;;;17.75;10.82;;;13.40;99.90;;;;;;5097380;28;20038;-64
2022/04/29 09:02:27;;;;;;;14.57;11.13;;;13.30;99.90;;;;;;5096870;28;20290;-64
2022/04/29 09:04:53;;;;;;;18.25;10.63;;;13.50;99.90;;;;;;5095896;28;20028;-64
2022/04/29 09:07:19;;;;;;;17.05;11.20;;;13.60;99.90;;;;;;5096136;28;20047;-64
2022/04/29 09:10:03;;;;;;;20.63;11.20;;;13.80;99.90;;;;;;5095850;28;20032;-64
2022/04/29 09:12:29;;;;;;;21.20;10.98;;;14.00;99.90;;;;;;5096747;28;20059;-64
2022/04/29 09:15:12;;;;;;;17.38;11.40;;;14.00;99.90;;;;;;5096619;28;20064;-64
2022/04/29 09:17:40;;;;;;;16.25;10.60;;;14.10;99.90;;;;;;5096579;28;20034;-64
2022/04/29 09:20:18;;;;;;;15.48;10.52;;;14.10;99.90;;;;;;5079284;28;20039;-64
2022/04/29 09:22:47;;;;;;;21.67;11.27;;;14.20;99.90;;;;;;5095725;28;20020;-64
2022/04/29 09:25:36;;;;;;;14.88;11.25;;;14.40;99.90;;;;;;5069205;28;20300;-64
2022/04/29 09:28:21;;;;;;;20.25;11.73;;;14.60;99.90;;;;;;5100435;28;20050;-64
2022/04/29 09:31:07;;;;;;;19.00;12.05;;;14.60;99.90;;;;;;5099892;28;20085;-64
2022/04/29 09:34:02;;;;;;;16.83;11.20;;;14.60;99.90;;;;;;5090725;28;20044;-64
2022/04/29 09:36:34;;;;;;;16.88;12.05;;;14.70;99.90;;;;;;5099314;28;20034;-64
2022/04/29 09:41:58;;;;;;;19.15;11.50;;;14.70;99.90;;;;;;5100208;28;20036;-64
2022/04/29 09:44:35;;;;;;;17.38;11.48;;;15.00;99.90;;;;;;5099780;28;20453;-65
2022/04/29 09:47:21;;;;;;;17.58;11.25;;;15.20;99.90;;;;;;5099640;28;20059;-64
2022/04/29 09:49:59;;;;;;;17.98;11.55;;;15.30;99.90;;;;;;5099266;28;20393;-64
2022/04/29 09:52:26;;;;;;;16.77;11.70;;;15.40;99.90;;;;;;5098959;28;20170;-65
2022/04/29 09:54:53;;;;;;;16.10;11.52;;;15.70;99.90;;;;;;5099502;28;20287;-65
2022/04/29 09:57:23;;;;;;;15.02;11.18;;;15.90;99.90;;;;;;5098748;28;20300;-64
2022/04/29 09:59:53;;;;;;;16.77;11.57;;;15.90;99.90;;;;;;5098853;28;20038;-65
2022/04/29 10:02:22;;;;;;;18.92;12.38;;;16.00;99.90;;;;;;5099016;28;20076;-64
2022/04/29 10:04:51;;;;;;;21.05;12.30;;;16.10;99.90;;;;;;5082253;28;20020;-64
2022/04/29 10:07:22;;;;;;;19.90;13.18;;;16.30;99.90;;;;;;5098838;28;20024;-65
2022/04/29 10:09:55;;;;;;;16.60;11.32;;;16.40;99.90;;;;;;5098652;28;20128;-65
2022/04/29 10:12:23;;;;;;;18.42;11.63;;;16.60;99.90;;;;;;5098427;28;20422;-66
2022/04/29 10:15:16;;;;;;;14.75;11.70;;;16.70;99.90;;;;;;5099514;28;20447;-66
2022/04/29 10:23:38;;;;;;;16.92;12.50;;;17.70;99.90;;;;;;5099028;28;20032;-66
2022/04/29 10:26:04;;;;;;;20.80;12.55;;;18.00;99.90;;;;;;5098146;28;20047;-65
2022/04/29 10:28:32;;;;;;;19.10;12.77;;;18.10;99.90;;;;;;5099004;28;20039;-65
2022/04/29 10:31:06;;;;;;;17.20;11.68;;;18.20;99.90;;;;;;5099232;28;20032;-65
2022/04/29 10:33:32;;;;;;;17.42;12.05;;;18.20;99.90;;;;;;5098788;28;20034;-65
2022/04/29 10:36:09;;;;;;;19.08;12.27;;;18.50;99.90;;;;;;5098136;28;20138;-65
2022/04/29 10:38:43;;;;;;;15.73;11.63;;;19.00;99.90;;;;;;5098191;28;20039;-65
2022/04/29 10:41:15;;;;;;;16.85;12.68;;;19.00;99.90;;;;;;5081106;28;20428;-64
2022/04/29 10:44:04;;;;;;;22.65;12.48;;;19.20;99.90;;;;;;5098663;28;20089;-64
2022/04/29 10:46:30;;;;;;;15.25;11.63;;;19.40;99.90;;;;;;5088279;28;20416;-65
2022/04/29 10:49:30;;;;;;;20.15;12.32;;;19.60;99.90;;;;;;5097850;28;20055;-64
2022/04/29 10:52:29;;;;;;;17.30;11.00;;;19.80;99.90;;;;;;5098887;28;20039;-65
2022/04/29 10:55:06;;;;;;;16.02;11.68;;;19.70;99.90;;;;;;5083470;28;20036;-64
2022/04/29 10:57:41;;;;;;;15.48;12.00;;;20.00;99.90;;;;;;5097977;28;20043;-68
2022/04/29 11:00:13;;;;;;;16.17;12.23;;;20.30;99.90;;;;;;5097483;28;20020;-64
2022/04/29 11:02:40;;;;;;;15.90;11.30;;;20.50;99.90;;;;;;5098257;28;20024;-64
2022/04/29 11:05:07;;;;;;;16.98;12.30;;;20.10;99.90;;;;;;5098245;28;20339;-64
2022/04/29 11:07:38;;;;;;;15.93;12.23;;;20.00;99.90;;;;;;5098107;28;20304;-64
2022/04/29 11:10:22;;;;;;;19.45;12.48;;;20.00;99.90;;;;;;5098267;28;20100;-64
2022/04/29 11:13:03;;;;;;;19.95;11.85;;;19.80;99.90;;;;;;5097445;28;20421;-64
2022/04/29 11:15:47;;;;;;;17.65;12.93;;;19.50;99.90;;;;;;5098668;28;20205;-64
2022/04/29 11:18:30;;;;;;;17.83;12.57;;;19.30;99.90;;;;;;5097337;28;20032;-64
2022/04/29 11:20:57;;;;;;;17.25;11.77;;;19.10;99.90;;;;;;5097876;28;20103;-64
2022/04/29 11:26:17;;;;;;;16.35;11.80;;;20.00;99.90;;;;;;5098546;28;20089;-64
2022/04/29 11:28:52;;;;;;;15.70;11.70;;;20.30;99.90;;;;;;5097151;28;20281;-63
2022/04/29 11:31:47;;;;;;;20.55;12.38;;;20.40;99.90;;;;;;5097012;28;20323;-64
2022/04/29 11:34:15;;;;;;;20.77;12.30;;;20.20;99.90;;;;;;5096825;28;20422;-64
2022/04/29 11:36:42;;;;;;;16.77;11.73;;;20.30;99.90;;;;;;5097611;28;20032;-65
2022/04/29 11:39:15;;;;;;;15.15;11.95;;;20.60;99.90;;;;;;5097636;28;20128;-64
2022/04/29 11:41:58;;;;;;;22.30;12.55;;;21.40;99.90;;;;;;5097605;28;20039;-64
2022/04/29 11:44:34;;;;;;;14.05;11.73;;;22.50;99.90;;;;;;5096874;28;20024;-65
2022/04/29 11:47:01;;;;;;;16.17;11.50;;;23.30;99.40;;;;;;5097469;28;20039;-65
2022/04/29 11:49:29;;;;;;;20.27;12.57;;;23.50;98.80;;;;;;5097901;28;20364;-64
2022/04/29 11:51:55;;;;;;;19.23;12.13;;;23.90;97.90;;;;;;5096971;28;20036;-63
2022/04/29 11:54:21;;;;;;;17.35;11.68;;;23.90;97.30;;;;;;5097409;28;20120;-63
2022/04/29 11:56:46;;;;;;;15.25;11.75;;;23.30;97.30;;;;;;5097378;28;20028;-64
2022/04/29 11:59:12;;;;;;;18.73;12.05;;;23.10;97.90;;;;;;5097306;28;20036;-64
2022/04/29 12:01:39;;;;;;;14.77;11.85;;;23.20;97.60;;;;;;5097351;28;20043;-66
2022/04/29 12:04:05;;;;;;;16.08;12.00;;;23.40;97.00;;;;;;5097351;28;20103;-66
2022/04/29 12:06:32;;;;;;;16.73;11.50;;;23.50;96.60;;;;;;5096713;28;20120;-64
2022/04/29 12:08:57;;;;;;;15.30;11.20;;;23.50;96.30;;;;;;5097282;28;20115;-65
2022/04/29 12:11:30;;;;;;;16.85;11.85;;;23.00;96.80;;;;;;5097390;28;20127;-65
2022/04/29 12:13:56;;;;;;;21.48;11.70;;;22.50;96.20;;;;;;5097186;28;20024;-64
2022/04/29 12:16:23;;;;;;;16.33;11.38;;;22.80;96.50;;;;;;5097269;28;20040;-66
2022/04/29 12:18:50;;;;;;;15.50;12.05;;;23.30;95.70;;;;;;5096352;28;20029;-65
2022/04/29 12:21:25;;;;;;;16.20;12.00;;;23.50;95.10;;;;;;5097502;28;20028;-65
2022/04/29 12:23:52;;;;;;;15.25;12.35;;;23.50;94.90;;;;;;5096955;28;20388;-64
2022/04/29 12:26:20;;;;;;;17.35;12.05;;;23.40;95.20;;;;;;5096688;28;20319;-64
2022/04/29 12:28:56;;;;;;;14.05;10.40;;;22.80;95.60;;;;;;5096268;28;20063;-64
2022/04/29 12:37:11;;;;;;;15.40;11.25;;;23.00;95.50;;;;;;5096011;28;20047;-64
2022/04/29 12:39:47;;;;;;;17.02;11.60;;;23.20;95.70;;;;;;5097171;28;20042;-64
2022/04/29 12:42:18;;;;;;;14.80;10.50;;;23.70;94.80;;;;;;5096961;28;20024;-64
2022/04/29 12:45:09;;;;;;;18.67;11.50;;;23.60;94.50;;;;;;5079471;28;20484;-64
2022/04/29 12:47:44;;;;;;;16.10;12.00;;;23.80;94.00;;;;;;5096034;28;20350;-64
2022/04/29 12:50:37;;;;;;;17.35;12.18;;;23.50;94.20;;;;;;5097128;28;20047;-63
2022/04/29 12:53:06;;;;;;;;;;;22.70;94.70;;;;;;5097053;28;20032;-64
2022/04/29 12:55:35;;;;;;;18.55;12.07;;;23.10;95.10;;;;;;5096174;28;20017;-63
2022/04/29 12:58:07;;;;;;;16.27;10.77;;;23.60;94.50;;;;;;5096617;28;20039;-64
2022/04/29 13:00:34;;;;;;;14.82;11.55;;;23.90;94.80;;;;;;5098275;28;20024;-64
2022/04/29 13:03:03;;;;;;;14.95;11.05;;;24.20;93.50;;;;;;5100602;28;20089;-64
2022/04/29 13:05:30;;;;;;;17.48;11.07;;;24.40;93.30;;;;;;5100674;28;20342;-62
2022/04/29 13:07:56;;;;;;;16.17;11.00;;;25.30;92.70;;;;;;5100723;28;20039;-65
2022/04/29 13:10:22;;;;;;;16.55;11.32;;;25.70;91.10;;;;;;5100753;28;20307;-64
2022/04/29 13:12:49;;;;;;;13.30;11.02;;;25.20;90.90;;;;;;5100630;28;20028;-65
2022/04/29 13:15:24;;;;;;;14.57;11.27;;;25.30;91.20;;;;;;5084293;28;20131;-65
2022/04/29 13:17:50;;;;;;;14.57;10.25;;;25.20;90.30;;;;;;5100457;28;20063;-64
2022/04/29 13:20:16;;;;;;;12.82;9.73;;;24.70;91.50;;;;;;5100417;28;20138;-64
2022/04/29 13:22:42;;;;;;;12.07;8.95;;;25.60;91.00;;;;;;5100276;28;20100;-64
2022/04/29 13:25:10;;;;;;;15.93;10.98;;;26.00;90.70;;;;;;5099633;28;20028;-63
2022/04/29 13:27:37;;;;;;;10.23;8.00;;;27.00;87.00;;;;;;5099439;28;20032;-64
2022/04/29 13:30:06;;;;;;;14.75;9.55;;;27.30;86.30;;;;;;5100283;28;20058;-64
2022/04/29 13:32:33;;;;;;;16.30;10.05;;;28.70;83.60;;;;;;5100155;28;20047;-64
2022/04/29 13:34:59;;;;;;;12.63;9.60;;;30.10;76.60;;;;;;5100066;28;20046;-64
2022/04/29 13:37:25;;;;;;;10.85;8.52;;;30.10;74.50;;;;;;5100011;28;20024;-67